createdAt,value
2023-01-04T00:01:24.998Z,2.60
2023-01-04T00:03:56.641Z,2.50
2023-01-04T00:06:28.067Z,2.58
2023-01-04T00:08:59.278Z,2.30
2023-01-04T00:11:30.640Z,2.67
2023-01-04T00:14:01.805Z,2.47
2023-01-04T00:16:32.958Z,2.80
2023-01-04T00:19:04.619Z,2.10
2023-01-04T00:24:06.688Z,2.20
2023-01-04T00:26:37.856Z,2.08
2023-01-04T00:29:11.875Z,2.50
2023-01-04T00:31:42.989Z,2.10
2023-01-04T00:34:17.843Z,2.05
2023-01-04T00:36:49.581Z,1.98
2023-01-04T00:39:20.933Z,1.92
2023-01-04T00:41:59.741Z,1.90
2023-01-04T00:44:31.935Z,2.15
2023-01-04T00:47:04.474Z,2.00
2023-01-04T00:49:35.697Z,1.95
2023-01-04T00:52:08.114Z,2.55
2023-01-04T00:54:39.241Z,2.67
2023-01-04T00:57:10.522Z,2.63
2023-01-04T00:59:41.922Z,2.80
2023-01-04T01:02:13.396Z,2.50
2023-01-04T01:04:44.724Z,2.92
2023-01-04T01:07:15.826Z,2.88
2023-01-04T01:09:47.233Z,2.60
2023-01-04T01:12:18.373Z,3.08
2023-01-04T01:14:49.932Z,2.75
2023-01-04T01:17:21.249Z,2.47
2023-01-04T01:19:52.433Z,2.63
2023-01-04T01:22:23.405Z,2.20
2023-01-04T01:24:54.533Z,2.35
2023-01-04T01:27:25.857Z,3.03
2023-01-04T01:29:57.193Z,2.70
2023-01-04T01:32:28.169Z,2.13
2023-01-04T01:34:59.487Z,3.05
2023-01-04T01:40:01.472Z,2.65
2023-01-04T01:45:12.431Z,3.00
2023-01-04T01:47:46.747Z,2.70
2023-01-04T01:50:41.053Z,3.00
2023-01-04T01:53:14.051Z,2.90
2023-01-04T01:55:46.384Z,2.20
2023-01-04T01:58:24.580Z,2.35
2023-01-04T02:00:56.142Z,2.00
2023-01-04T02:03:34.550Z,2.35
2023-01-04T02:06:09.509Z,2.70
2023-01-04T02:08:42.401Z,2.25
2023-01-04T02:11:13.714Z,2.40
2023-01-04T02:14:04.097Z,2.67
2023-01-04T02:16:35.218Z,2.78
2023-01-04T02:19:33.839Z,2.55
2023-01-04T02:22:53.348Z,2.78
2023-01-04T02:25:30.341Z,2.38
2023-01-04T02:28:25.424Z,2.63
2023-01-04T02:31:14.673Z,2.80
2023-01-04T02:34:12.217Z,2.58
2023-01-04T02:37:01.657Z,3.17
2023-01-04T02:40:06.472Z,2.60
2023-01-04T02:43:17.586Z,2.58
2023-01-04T02:46:18.792Z,2.40
2023-01-04T02:49:08.854Z,2.30
2023-01-04T02:51:40.669Z,2.38
2023-01-04T02:54:17.766Z,2.42
2023-01-04T02:57:02.706Z,1.65
2023-01-04T02:59:41.568Z,1.90
2023-01-04T03:02:45.980Z,1.88
2023-01-04T03:05:41.480Z,2.30
2023-01-04T03:08:25.472Z,2.22
2023-01-04T03:11:28.482Z,1.90
2023-01-04T03:14:31.400Z,2.15
2023-01-04T03:17:12.034Z,2.20
2023-01-04T03:19:53.766Z,2.17
2023-01-04T03:23:02.738Z,2.03
2023-01-04T03:26:04.703Z,2.50
2023-01-04T03:28:56.584Z,2.72
2023-01-04T03:34:39.855Z,2.30
2023-01-04T03:37:20.968Z,2.03
2023-01-04T03:40:59.220Z,2.42
2023-01-04T03:44:15.983Z,2.70
2023-01-04T03:47:11.573Z,2.42
2023-01-04T03:49:50.173Z,2.50
2023-01-04T03:52:21.931Z,2.47
2023-01-04T03:54:53.067Z,2.90
2023-01-04T03:57:24.746Z,2.40
2023-01-04T04:02:32.625Z,2.47
2023-01-04T04:05:21.801Z,2.35
2023-01-04T04:08:11.269Z,2.63
2023-01-04T04:10:42.708Z,2.25
2023-01-04T04:13:13.531Z,2.40
2023-01-04T04:15:44.517Z,2.72
2023-01-04T04:18:15.922Z,2.83
2023-01-04T04:20:47.042Z,2.42
2023-01-04T04:23:18.205Z,2.65
2023-01-04T04:25:49.662Z,2.38
2023-01-04T04:28:20.791Z,2.13
2023-01-04T04:30:54.885Z,2.53
2023-01-04T04:33:26.016Z,2.72
2023-01-04T04:35:57.832Z,2.35
2023-01-04T04:38:28.815Z,2.40
2023-01-04T04:41:18.583Z,2.05
2023-01-04T04:43:49.760Z,2.13
2023-01-04T04:46:20.816Z,2.25
2023-01-04T04:48:52.049Z,2.60
2023-01-04T04:51:23.256Z,2.80
2023-01-04T04:53:54.296Z,2.30
2023-01-04T04:56:25.789Z,2.28
2023-01-04T04:58:56.813Z,2.28
2023-01-04T05:01:28.154Z,1.83
2023-01-04T05:03:59.492Z,2.08
2023-01-04T05:06:30.759Z,2.13
2023-01-04T05:09:01.929Z,3.17
2023-01-04T05:11:51.103Z,2.22
2023-01-04T05:14:23.988Z,2.90
2023-01-04T05:16:55.729Z,2.28
2023-01-04T05:19:26.793Z,2.67
2023-01-04T05:21:57.991Z,2.40
2023-01-04T05:24:29.140Z,2.38
2023-01-04T05:27:00.301Z,2.40
2023-01-04T05:29:49.523Z,2.75
2023-01-04T05:32:20.589Z,3.45
2023-01-04T05:34:51.584Z,3.67
2023-01-04T05:37:22.474Z,2.60
2023-01-04T05:39:53.632Z,2.47
2023-01-04T05:42:29.375Z,2.58
2023-01-04T05:45:01.322Z,2.22
2023-01-04T05:47:33.698Z,2.40
2023-01-04T05:50:05.561Z,1.98
2023-01-04T05:52:36.981Z,2.67
2023-01-04T05:55:08.436Z,4.15
2023-01-04T06:00:12.671Z,2.13
2023-01-04T06:02:45.180Z,1.98
2023-01-04T06:05:16.629Z,2.22
2023-01-04T06:10:18.599Z,2.30
2023-01-04T06:15:20.703Z,2.10
2023-01-04T06:17:51.994Z,2.33
2023-01-04T06:20:23.526Z,2.30
2023-01-04T06:22:54.803Z,2.80
2023-01-04T06:25:25.819Z,2.22
2023-01-04T06:27:56.947Z,2.88
2023-01-04T06:30:30.478Z,2.47
2023-01-04T06:33:01.803Z,2.50
2023-01-04T06:35:33.158Z,2.25
2023-01-04T06:38:04.444Z,2.40
2023-01-04T06:40:35.696Z,2.22
2023-01-04T06:43:07.296Z,2.00
2023-01-04T06:45:39.205Z,2.10
2023-01-04T06:48:10.665Z,2.25
2023-01-04T06:50:49.498Z,1.88
2023-01-04T06:53:20.969Z,2.00
2023-01-04T06:55:52.032Z,1.70
2023-01-04T06:58:23.082Z,2.00
2023-01-04T07:00:55.042Z,2.08
2023-01-04T07:03:26.265Z,1.90
2023-01-04T07:05:57.632Z,1.88
2023-01-04T07:08:28.841Z,2.00
2023-01-04T07:10:59.837Z,1.80
2023-01-04T07:13:31.217Z,2.08
2023-01-04T07:16:02.751Z,1.90
2023-01-04T07:18:34.155Z,1.80
2023-01-04T07:21:05.289Z,1.67
2023-01-04T07:23:36.201Z,2.28
2023-01-04T07:26:07.269Z,2.40
2023-01-04T07:28:56.470Z,1.83
2023-01-04T07:31:27.698Z,2.30
2023-01-04T07:33:58.967Z,2.13
2023-01-04T07:36:29.999Z,2.28
2023-01-04T07:39:05.105Z,2.47
2023-01-04T07:41:36.044Z,2.38
2023-01-04T07:44:08.439Z,2.28
2023-01-04T07:46:40.541Z,2.20
2023-01-04T07:49:18.020Z,2.40
2023-01-04T07:51:50.142Z,2.42
2023-01-04T07:54:22.122Z,2.20
2023-01-04T07:56:53.739Z,2.20
2023-01-04T07:59:25.317Z,2.20
2023-01-04T08:01:57.275Z,2.03
2023-01-04T08:04:34.414Z,1.90
2023-01-04T08:07:06.518Z,3.00
2023-01-04T08:12:08.773Z,1.60
2023-01-04T08:14:39.933Z,2.47
2023-01-04T08:17:12.363Z,1.50
2023-01-04T08:19:43.511Z,1.50
2023-01-04T08:22:15.415Z,1.63
2023-01-04T08:24:46.562Z,1.60
2023-01-04T08:27:17.676Z,1.60
2023-01-04T08:29:49.299Z,1.80
2023-01-04T08:32:20.475Z,1.80
2023-01-04T08:34:51.882Z,1.58
2023-01-04T08:37:23.041Z,1.58
2023-01-04T08:39:55.458Z,2.10
2023-01-04T08:42:31.254Z,1.63
2023-01-04T08:45:03.614Z,1.73
2023-01-04T08:47:35.665Z,2.10
2023-01-04T08:50:10.688Z,1.85
2023-01-04T08:52:43.525Z,2.33
2023-01-04T08:55:17.761Z,1.83
2023-01-04T08:57:51.263Z,1.80
2023-01-04T09:00:23.289Z,1.80
2023-01-04T09:02:55.061Z,1.38
2023-01-04T09:05:27.457Z,1.85
2023-01-04T09:07:58.837Z,1.80
2023-01-04T09:10:29.995Z,1.45
2023-01-04T09:13:01.140Z,1.58
2023-01-04T09:15:33.099Z,2.65
2023-01-04T09:18:31.951Z,1.70
2023-01-04T09:20:55.588Z,2.05
2023-01-04T09:23:27.059Z,1.90
2023-01-04T09:25:58.160Z,1.50
2023-01-04T09:28:29.631Z,1.55
2023-01-04T09:31:00.738Z,1.80
2023-01-04T09:33:55.745Z,1.70
2023-01-04T09:36:23.167Z,1.50
2023-01-04T09:38:54.583Z,1.60
2023-01-04T09:41:31.644Z,1.70
2023-01-04T09:44:12.886Z,1.80
2023-01-04T09:47:10.592Z,1.55
2023-01-04T09:49:53.849Z,1.50
2023-01-04T09:52:50.467Z,1.85
2023-01-04T09:55:51.776Z,1.58
2023-01-04T09:58:37.880Z,1.60
2023-01-04T10:01:49.913Z,1.55
2023-01-04T10:07:04.893Z,2.25
2023-01-04T10:09:36.477Z,2.08
2023-01-04T10:12:44.048Z,2.38
2023-01-04T10:15:32.445Z,2.10
2023-01-04T10:21:32.010Z,2.20
2023-01-04T10:24:10.169Z,2.40
2023-01-04T10:26:52.789Z,2.80
2023-01-04T10:29:44.968Z,2.30
2023-01-04T10:32:31.980Z,3.10
2023-01-04T10:35:03.079Z,2.40
2023-01-04T10:37:39.298Z,2.63
2023-01-04T10:40:16.626Z,3.42
2023-01-04T10:43:14.057Z,2.67
2023-01-04T10:46:00.466Z,2.72
2023-01-04T10:48:51.489Z,2.40
2023-01-04T10:51:37.043Z,2.40
2023-01-04T10:54:23.223Z,2.60
2023-01-04T10:57:02.369Z,2.42
2023-01-04T10:59:36.662Z,2.20
2023-01-04T11:02:29.169Z,2.22
2023-01-04T11:05:22.332Z,2.05
2023-01-04T11:08:01.073Z,1.92
2023-01-04T11:10:43.004Z,2.10
2023-01-04T11:13:14.489Z,1.83
2023-01-04T11:15:46.867Z,1.75
2023-01-04T11:18:19.072Z,2.10
2023-01-04T11:20:50.215Z,1.92
2023-01-04T11:23:23.068Z,1.70
2023-01-04T11:26:00.465Z,1.95
2023-01-04T11:28:49.900Z,1.70
2023-01-04T11:32:14.364Z,1.63
2023-01-04T11:34:50.244Z,1.60
2023-01-04T11:37:29.814Z,2.03
2023-01-04T11:40:18.805Z,1.67
2023-01-04T11:43:13.076Z,1.48
2023-01-04T11:46:07.891Z,1.33
2023-01-04T11:48:46.057Z,1.30
2023-01-04T11:51:31.893Z,1.33
2023-01-04T11:54:04.137Z,1.75
2023-01-04T11:56:37.662Z,1.88
2023-01-04T11:59:11.581Z,1.73
2023-01-04T12:01:51.089Z,1.42
2023-01-04T12:04:29.091Z,1.80
2023-01-04T12:07:35.947Z,1.40
2023-01-04T12:10:25.216Z,1.48
2023-01-04T12:13:01.884Z,1.60
2023-01-04T12:16:07.853Z,1.40
2023-01-04T12:18:46.739Z,1.90
2023-01-04T12:21:24.206Z,1.60
2023-01-04T12:23:56.525Z,1.38
2023-01-04T12:26:27.896Z,1.40
2023-01-04T12:29:24.538Z,1.35
2023-01-04T12:32:09.099Z,2.00
2023-01-04T12:34:42.630Z,1.88
2023-01-04T12:37:34.560Z,2.00
2023-01-04T12:40:26.116Z,1.75
2023-01-04T12:43:18.405Z,2.05
2023-01-04T12:46:10.108Z,2.50
2023-01-04T12:49:00.635Z,2.50
2023-01-04T12:51:33.177Z,2.47
2023-01-04T12:54:07.240Z,2.28
2023-01-04T12:57:15.028Z,2.30
2023-01-04T13:00:07.984Z,2.10
2023-01-04T13:02:49.420Z,2.60
2023-01-04T13:05:55.549Z,2.30
2023-01-04T13:08:16.579Z,2.42
2023-01-04T13:10:53.075Z,2.20
2023-01-04T13:13:47.007Z,1.98
2023-01-04T13:16:47.134Z,2.03
2023-01-04T13:19:27.937Z,1.70
2023-01-04T13:21:59.112Z,2.80
2023-01-04T13:24:33.686Z,1.92
2023-01-04T13:27:09.744Z,1.45
2023-01-04T13:29:43.213Z,1.90
2023-01-04T13:32:19.467Z,1.92
2023-01-04T13:35:15.289Z,1.85
2023-01-04T13:37:48.602Z,1.67
2023-01-04T13:40:39.932Z,1.73
2023-01-04T13:43:37.841Z,2.15
2023-01-04T13:46:38.070Z,1.80
2023-01-04T13:49:19.149Z,1.50
2023-01-04T13:52:06.362Z,1.55
2023-01-04T13:54:44.131Z,1.30
2023-01-04T13:57:22.016Z,1.50
2023-01-04T13:59:53.540Z,1.27
2023-01-04T14:04:55.846Z,1.60
2023-01-04T14:07:27.329Z,1.70
2023-01-04T14:10:00.883Z,2.03
2023-01-04T14:12:32.885Z,1.30
2023-01-04T14:15:15.680Z,1.40
2023-01-04T14:17:53.609Z,1.20
2023-01-04T14:20:24.799Z,1.25
2023-01-04T14:23:00.107Z,1.13
2023-01-04T14:25:45.090Z,1.33
2023-01-04T14:28:33.860Z,1.33
2023-01-04T14:31:08.302Z,0.90
2023-01-04T14:33:50.085Z,0.90
2023-01-04T14:36:31.484Z,1.10
2023-01-04T14:39:09.032Z,1.00
2023-01-04T14:41:43.400Z,1.13
2023-01-04T14:44:23.138Z,0.85
2023-01-04T14:46:59.651Z,1.10
2023-01-04T14:49:32.972Z,1.35
2023-01-04T14:52:05.810Z,0.93
2023-01-04T14:54:40.459Z,1.00
2023-01-04T14:57:12.755Z,0.85
2023-01-04T14:59:46.436Z,1.10
2023-01-04T15:02:17.893Z,0.80
2023-01-04T15:04:49.389Z,0.65
2023-01-04T15:07:50.100Z,0.80
2023-01-04T15:10:31.581Z,0.75
2023-01-04T15:13:02.781Z,0.70
2023-01-04T15:15:37.546Z,1.17
2023-01-04T15:18:09.157Z,0.90
2023-01-04T15:20:43.590Z,1.02
2023-01-04T15:23:15.709Z,0.98
2023-01-04T15:25:47.082Z,0.88
2023-01-04T15:28:18.104Z,0.85
2023-01-04T15:30:49.055Z,1.00
2023-01-04T15:33:20.454Z,1.10
2023-01-04T15:36:03.716Z,1.10
2023-01-04T15:38:35.423Z,1.02
2023-01-04T15:41:08.302Z,1.20
2023-01-04T15:43:40.259Z,0.93
2023-01-04T15:46:11.512Z,1.02
2023-01-04T15:48:42.778Z,1.25
2023-01-04T15:53:45.239Z,1.20
2023-01-04T15:56:16.590Z,0.88
2023-01-04T15:58:47.593Z,0.90
2023-01-04T16:01:19.019Z,1.10
2023-01-04T16:06:26.476Z,1.10
2023-01-04T16:09:00.253Z,0.90
2023-01-04T16:11:31.894Z,1.27
2023-01-04T16:14:04.547Z,1.15
2023-01-04T16:16:36.083Z,1.20
2023-01-04T16:19:08.437Z,1.20
2023-01-04T16:21:39.297Z,1.10
2023-01-04T16:24:37.000Z,1.30
2023-01-04T16:27:03.609Z,1.10
2023-01-04T16:29:34.899Z,1.00
2023-01-04T16:32:06.478Z,1.10
2023-01-04T16:34:38.476Z,1.35
2023-01-04T16:42:31.547Z,1.27
2023-01-04T16:45:02.703Z,1.42
2023-01-04T16:47:42.464Z,1.10
2023-01-04T16:50:14.289Z,1.30
2023-01-04T16:52:46.165Z,1.60
2023-01-04T16:55:23.585Z,1.42
2023-01-04T16:57:55.003Z,1.25
2023-01-04T17:00:26.076Z,1.35
2023-01-04T17:02:57.514Z,1.35
2023-01-04T17:05:28.684Z,1.08
2023-01-04T17:07:59.809Z,1.40
2023-01-04T17:10:31.138Z,1.20
2023-01-04T17:13:03.037Z,1.30
2023-01-04T17:15:49.166Z,1.02
2023-01-04T17:18:23.928Z,1.10
2023-01-04T17:21:06.247Z,1.00
2023-01-04T17:23:50.197Z,0.93
2023-01-04T17:26:27.741Z,1.20
2023-01-04T17:29:00.536Z,1.00
2023-01-04T17:31:34.365Z,1.10
2023-01-04T17:34:06.058Z,0.88
2023-01-04T17:36:37.381Z,0.90
2023-01-04T17:39:08.796Z,0.93
2023-01-04T17:41:40.151Z,1.10
2023-01-04T17:44:12.431Z,1.13
2023-01-04T17:46:44.664Z,1.40
2023-01-04T17:51:55.953Z,1.13
2023-01-04T17:54:28.337Z,1.40
2023-01-04T17:59:29.987Z,0.95
2023-01-04T18:02:01.547Z,1.02
2023-01-04T18:04:32.815Z,1.10
2023-01-04T18:07:04.190Z,0.98
2023-01-04T18:09:35.637Z,0.80
2023-01-04T18:12:06.865Z,0.82
2023-01-04T18:14:38.122Z,2.20
2023-01-04T18:17:09.139Z,1.00
2023-01-04T18:19:44.545Z,1.00
2023-01-04T18:22:17.538Z,1.00
2023-01-04T18:24:48.493Z,0.93
2023-01-04T18:27:22.623Z,1.20
2023-01-04T18:29:56.873Z,1.10
2023-01-04T18:32:28.959Z,1.20
2023-01-04T18:35:05.782Z,1.00
2023-01-04T18:37:39.945Z,0.98
2023-01-04T18:40:11.699Z,0.98
2023-01-04T18:45:13.554Z,1.10
2023-01-04T18:47:48.984Z,1.00
2023-01-04T18:50:20.590Z,1.17
2023-01-04T18:52:51.964Z,1.33
2023-01-04T18:55:23.528Z,1.13
2023-01-04T18:57:54.825Z,0.85
2023-01-04T19:00:31.179Z,1.00
2023-01-04T19:03:02.768Z,0.90
2023-01-04T19:05:34.421Z,0.85
2023-01-04T19:08:06.056Z,0.90
2023-01-04T19:10:37.250Z,1.00
2023-01-04T19:13:08.118Z,1.10
2023-01-04T19:15:42.769Z,1.02
2023-01-04T19:18:18.551Z,1.00
2023-01-04T19:20:49.522Z,1.05
2023-01-04T19:23:20.845Z,1.05
2023-01-04T19:25:52.029Z,1.20
2023-01-04T19:28:23.224Z,1.27
2023-01-04T19:30:54.225Z,1.30
2023-01-04T19:33:26.260Z,1.17
2023-01-04T19:35:57.688Z,0.80
2023-01-04T19:38:28.825Z,0.77
2023-01-04T19:41:01.817Z,0.70
2023-01-04T19:43:33.052Z,0.70
2023-01-04T19:46:06.408Z,0.80
2023-01-04T19:48:37.605Z,1.10
2023-01-04T19:51:18.522Z,0.80
2023-01-04T19:53:49.908Z,0.90
2023-01-04T19:58:52.919Z,0.80
2023-01-04T20:03:54.761Z,1.20
2023-01-04T20:06:26.173Z,1.02
2023-01-04T20:08:57.387Z,1.33
2023-01-04T20:11:28.805Z,1.20
2023-01-04T20:14:00.048Z,0.95
2023-01-04T20:16:31.479Z,0.90
2023-01-04T20:19:02.685Z,0.98
2023-01-04T20:21:33.798Z,1.25
2023-01-04T20:24:05.208Z,0.90
2023-01-04T20:26:36.389Z,1.23
2023-01-04T20:29:08.078Z,1.10
2023-01-04T20:31:45.272Z,1.08
2023-01-04T20:34:16.892Z,0.90
2023-01-04T20:36:48.268Z,0.90
2023-01-04T20:39:19.475Z,1.20
2023-01-04T20:42:08.795Z,1.05
2023-01-04T20:44:40.135Z,1.00
2023-01-04T20:47:11.179Z,1.00
2023-01-04T20:49:42.055Z,1.10
2023-01-04T20:52:13.033Z,1.00
2023-01-04T20:54:44.820Z,1.17
2023-01-04T20:57:17.154Z,1.23
2023-01-04T20:59:48.517Z,1.00
2023-01-04T21:02:19.715Z,0.90
2023-01-04T21:04:50.799Z,1.30
2023-01-04T21:07:22.002Z,0.90
2023-01-04T21:09:52.923Z,1.00
2023-01-04T21:12:24.349Z,1.23
2023-01-04T21:14:55.524Z,1.20
2023-01-04T21:17:26.394Z,1.10
2023-01-04T21:19:57.294Z,1.15
2023-01-04T21:22:28.645Z,0.90
2023-01-04T21:24:59.789Z,1.08
2023-01-04T21:27:32.995Z,0.90
2023-01-04T21:30:04.738Z,0.90
2023-01-04T21:35:06.912Z,0.70
2023-01-04T21:37:37.865Z,0.60
2023-01-04T21:40:09.405Z,0.85
2023-01-04T21:42:42.096Z,0.80
2023-01-04T21:45:13.633Z,0.80
2023-01-04T21:50:17.151Z,1.00
2023-01-04T21:52:49.222Z,1.42
2023-01-04T21:55:20.279Z,0.77
2023-01-04T21:57:52.163Z,0.95
2023-01-04T22:00:23.903Z,1.10
2023-01-04T22:02:55.432Z,1.10
2023-01-04T22:05:26.991Z,0.80
2023-01-04T22:07:58.142Z,1.02
2023-01-04T22:10:29.096Z,1.00
2023-01-04T22:13:00.403Z,0.90
2023-01-04T22:15:31.520Z,0.90
2023-01-04T22:18:02.880Z,0.80
2023-01-04T22:20:34.188Z,0.93
2023-01-04T22:23:05.628Z,0.75
2023-01-04T22:25:37.146Z,0.60
2023-01-04T22:28:08.469Z,0.65
2023-01-04T22:30:43.547Z,0.57
2023-01-04T22:33:14.913Z,0.93
2023-01-04T22:35:45.861Z,0.52
2023-01-04T22:38:17.018Z,0.70
2023-01-04T22:40:48.278Z,0.70
2023-01-04T22:43:19.688Z,0.73
2023-01-04T22:45:50.818Z,0.70
2023-01-04T22:48:21.791Z,0.70
2023-01-04T22:50:52.622Z,0.63
2023-01-04T22:53:23.746Z,0.50
2023-01-04T22:58:52.043Z,0.80
2023-01-04T23:01:26.292Z,0.82
2023-01-04T23:03:58.680Z,0.57
2023-01-04T23:06:31.758Z,0.60
2023-01-04T23:09:09.343Z,0.50
2023-01-04T23:11:40.924Z,0.50
2023-01-04T23:14:15.307Z,0.80
2023-01-04T23:16:49.734Z,0.60
2023-01-04T23:19:20.864Z,0.60
2023-01-04T23:21:52.618Z,0.80
2023-01-04T23:24:23.735Z,0.75
2023-01-04T23:26:54.839Z,0.60
2023-01-04T23:29:29.352Z,0.70
2023-01-04T23:32:00.966Z,0.93
2023-01-04T23:34:32.328Z,0.60
2023-01-04T23:37:03.547Z,0.70
2023-01-04T23:39:35.032Z,0.77
2023-01-04T23:42:06.440Z,0.73
2023-01-04T23:44:37.543Z,0.82
2023-01-04T23:47:09.745Z,0.70
2023-01-04T23:49:41.813Z,0.60
2023-01-04T23:52:13.741Z,0.60
2023-01-04T23:54:44.679Z,0.85
2023-01-04T23:57:15.597Z,1.00
2023-01-04T23:59:47.179Z,1.00
